createdAt,value
2019-01-31T00:02:26.083Z,33.03
2019-01-31T00:05:06.690Z,33.40
2019-01-31T00:08:14.073Z,35.90
2019-01-31T00:11:13.300Z,34.63
2019-01-31T00:14:30.910Z,32.20
2019-01-31T00:17:29.748Z,33.60
2019-01-31T00:20:37.055Z,33.97
2019-01-31T00:23:47.155Z,32.30
2019-01-31T00:26:55.047Z,32.67
2019-01-31T00:30:08.001Z,33.07
2019-01-31T00:33:34.206Z,34.77
2019-01-31T00:36:41.758Z,34.43
2019-01-31T00:40:05.074Z,33.10
2019-01-31T00:43:18.513Z,33.03
2019-01-31T00:46:32.654Z,31.70
2019-01-31T00:49:47.351Z,34.37
2019-01-31T00:52:46.738Z,33.60
2019-01-31T00:56:10.266Z,33.40
2019-01-31T00:59:03.594Z,34.47
2019-01-31T01:01:58.422Z,33.83
2019-01-31T01:04:53.583Z,32.53
2019-01-31T01:07:47.819Z,35.13
2019-01-31T01:11:05.180Z,33.77
2019-01-31T01:14:21.231Z,33.53
2019-01-31T01:17:12.943Z,33.37
2019-01-31T01:19:51.588Z,34.47
2019-01-31T01:22:58.559Z,34.23
2019-01-31T01:26:02.077Z,32.33
2019-01-31T01:29:08.926Z,34.93
2019-01-31T01:32:08.670Z,34.07
2019-01-31T01:35:12.706Z,34.50
2019-01-31T01:38:06.342Z,35.27
2019-01-31T01:41:19.726Z,34.73
2019-01-31T01:44:14.371Z,33.93
2019-01-31T01:47:14.854Z,34.13
2019-01-31T01:49:52.089Z,33.90
2019-01-31T01:52:53.381Z,33.50
2019-01-31T01:56:13.342Z,32.73
2019-01-31T01:59:08.958Z,34.87
2019-01-31T02:02:29.246Z,34.27
2019-01-31T02:05:30.642Z,34.43
2019-01-31T02:08:17.922Z,33.60
2019-01-31T02:11:02.599Z,33.43
2019-01-31T02:14:12.337Z,34.23
2019-01-31T02:17:13.314Z,33.23
2019-01-31T02:19:56.810Z,32.17
2019-01-31T02:23:20.590Z,33.30
2019-01-31T02:26:22.070Z,32.03
2019-01-31T02:29:33.049Z,32.83
2019-01-31T02:32:59.859Z,31.60
2019-01-31T02:36:05.149Z,33.03
2019-01-31T02:39:07.086Z,32.70
2019-01-31T02:42:49.114Z,33.27
2019-01-31T02:45:50.685Z,30.67
2019-01-31T02:49:06.483Z,31.33
2019-01-31T02:52:07.527Z,32.23
2019-01-31T02:55:02.378Z,32.57
2019-01-31T02:58:14.224Z,33.10
2019-01-31T03:01:28.616Z,33.60
2019-01-31T03:04:40.653Z,33.17
2019-01-31T03:07:52.442Z,32.03
2019-01-31T03:10:50.954Z,32.13
2019-01-31T03:13:41.352Z,32.43
2019-01-31T03:16:52.878Z,31.80
2019-01-31T03:19:45.500Z,32.07
2019-01-31T03:22:54.401Z,32.47
2019-01-31T03:26:05.202Z,31.50
2019-01-31T03:29:28.433Z,30.37
2019-01-31T03:32:21.491Z,31.60
2019-01-31T03:35:27.487Z,31.83
2019-01-31T03:38:15.936Z,30.97
2019-01-31T03:41:05.798Z,31.73
2019-01-31T03:44:10.523Z,31.67
2019-01-31T03:47:12.371Z,31.33
2019-01-31T03:49:51.146Z,31.33
2019-01-31T03:52:52.462Z,31.83
2019-01-31T03:56:15.787Z,32.03
2019-01-31T03:58:51.284Z,31.53
2019-01-31T04:01:58.130Z,31.70
2019-01-31T04:04:42.323Z,31.77
2019-01-31T04:07:12.714Z,31.90
2019-01-31T04:09:43.048Z,32.63
2019-01-31T04:12:13.458Z,30.70
2019-01-31T04:14:43.812Z,31.23
2019-01-31T04:17:14.352Z,30.30
2019-01-31T04:19:44.701Z,30.53
2019-01-31T04:22:15.114Z,30.87
2019-01-31T04:24:45.456Z,29.93
2019-01-31T04:27:15.813Z,30.10
2019-01-31T04:29:46.186Z,30.60
2019-01-31T04:32:16.550Z,30.50
2019-01-31T04:34:46.950Z,31.17
2019-01-31T04:37:17.323Z,30.73
2019-01-31T04:39:47.694Z,30.97
2019-01-31T04:42:18.037Z,30.47
2019-01-31T04:44:48.391Z,30.30
2019-01-31T04:47:18.727Z,31.07
2019-01-31T04:49:49.117Z,32.30
2019-01-31T04:52:19.439Z,31.20
2019-01-31T04:54:49.810Z,29.50
2019-01-31T04:57:20.173Z,30.90
2019-01-31T04:59:50.554Z,30.63
2019-01-31T05:02:20.918Z,30.17
2019-01-31T05:04:51.250Z,30.17
2019-01-31T05:07:21.610Z,28.67
2019-01-31T05:09:51.955Z,30.13
2019-01-31T05:12:22.667Z,29.83
2019-01-31T05:14:53.006Z,29.97
2019-01-31T05:17:23.383Z,30.20
2019-01-31T05:19:53.727Z,30.53
2019-01-31T05:22:24.106Z,29.67
2019-01-31T05:24:54.444Z,30.43
2019-01-31T05:27:24.900Z,30.00
2019-01-31T05:29:55.893Z,30.37
2019-01-31T05:32:26.278Z,30.30
2019-01-31T05:34:56.630Z,30.77
2019-01-31T05:37:27.117Z,30.23
2019-01-31T05:39:57.462Z,30.67
2019-01-31T05:42:27.827Z,30.10
2019-01-31T05:44:58.202Z,29.60
2019-01-31T05:47:28.571Z,29.83
2019-01-31T05:49:59.326Z,31.23
2019-01-31T05:52:29.663Z,30.93
2019-01-31T05:55:00.022Z,29.30
2019-01-31T05:57:30.366Z,29.83
2019-01-31T06:00:00.794Z,29.80
2019-01-31T06:02:31.154Z,29.13
2019-01-31T06:05:01.548Z,30.60
2019-01-31T06:07:31.903Z,28.57
2019-01-31T06:10:02.282Z,29.47
2019-01-31T06:12:32.974Z,29.30
2019-01-31T06:15:03.370Z,30.17
2019-01-31T06:17:33.740Z,29.80
2019-01-31T06:20:05.102Z,30.47
2019-01-31T06:22:35.451Z,30.97
2019-01-31T06:25:06.317Z,31.30
2019-01-31T06:27:36.662Z,30.10
2019-01-31T06:30:07.999Z,32.60
2019-01-31T06:32:38.346Z,31.13
2019-01-31T06:35:12.394Z,31.07
2019-01-31T06:37:42.826Z,30.73
2019-01-31T06:40:15.732Z,30.80
2019-01-31T06:42:46.757Z,29.83
2019-01-31T06:45:19.054Z,30.20
2019-01-31T06:47:49.389Z,29.73
2019-01-31T06:50:19.755Z,29.13
2019-01-31T06:52:50.114Z,31.97
2019-01-31T06:55:20.472Z,31.17
2019-01-31T06:57:50.836Z,30.73
2019-01-31T07:00:23.138Z,30.53
2019-01-31T07:02:54.355Z,29.77
2019-01-31T07:05:24.686Z,30.27
2019-01-31T07:07:55.104Z,30.67
2019-01-31T07:10:26.973Z,30.27
2019-01-31T07:12:57.438Z,31.00
2019-01-31T07:15:27.782Z,30.70
2019-01-31T07:17:58.170Z,30.50
2019-01-31T07:20:28.503Z,30.33
2019-01-31T07:22:58.886Z,30.13
2019-01-31T07:25:29.226Z,29.97
2019-01-31T07:28:17.434Z,27.80
2019-01-31T07:30:47.767Z,30.00
2019-01-31T07:33:18.238Z,29.57
2019-01-31T07:35:51.911Z,31.00
2019-01-31T07:38:21.534Z,30.37
2019-01-31T07:40:51.861Z,30.23
2019-01-31T07:43:22.326Z,30.27
2019-01-31T07:45:52.664Z,31.20
2019-01-31T07:48:23.118Z,29.60
2019-01-31T07:50:53.597Z,29.97
2019-01-31T07:53:23.954Z,28.23
2019-01-31T07:55:54.289Z,28.80
2019-01-31T07:58:24.649Z,30.07
2019-01-31T08:00:55.015Z,28.23
2019-01-31T08:03:25.402Z,28.67
2019-01-31T08:05:55.738Z,30.40
2019-01-31T08:08:26.486Z,29.60
2019-01-31T08:10:56.830Z,28.37
2019-01-31T08:13:27.290Z,27.50
2019-01-31T08:15:57.619Z,27.10
2019-01-31T08:18:28.086Z,26.83
2019-01-31T08:20:58.418Z,26.13
2019-01-31T08:23:28.789Z,26.50
2019-01-31T08:25:59.150Z,28.03
2019-01-31T08:28:29.482Z,27.57
2019-01-31T08:30:59.838Z,27.73
2019-01-31T08:33:30.184Z,28.20
2019-01-31T08:36:00.603Z,28.00
2019-01-31T08:38:31.046Z,26.87
2019-01-31T08:41:01.387Z,26.57
2019-01-31T08:43:31.751Z,27.47
2019-01-31T08:46:02.105Z,27.43
2019-01-31T08:48:32.486Z,27.87
2019-01-31T08:51:02.832Z,27.00
2019-01-31T08:53:33.204Z,28.17
2019-01-31T08:56:04.020Z,27.37
2019-01-31T08:58:34.813Z,27.13
2019-01-31T09:01:05.309Z,26.83
2019-01-31T09:03:35.709Z,27.27
2019-01-31T09:06:06.155Z,25.43
2019-01-31T09:08:37.594Z,27.73
2019-01-31T09:11:07.942Z,26.97
2019-01-31T09:13:39.494Z,26.80
2019-01-31T09:16:11.015Z,27.47
2019-01-31T09:18:41.550Z,26.33
2019-01-31T09:21:29.770Z,26.77
2019-01-31T09:24:42.078Z,25.80
2019-01-31T09:27:45.687Z,26.27
2019-01-31T09:31:00.199Z,27.07
2019-01-31T09:33:43.666Z,27.80
2019-01-31T09:36:51.805Z,26.87
2019-01-31T09:39:49.126Z,25.50
2019-01-31T09:42:28.299Z,25.03
2019-01-31T09:45:35.365Z,23.77
2019-01-31T09:48:31.943Z,24.07
2019-01-31T09:51:13.490Z,25.03
2019-01-31T09:54:10.255Z,23.57
2019-01-31T09:57:06.774Z,25.47
2019-01-31T10:00:00.838Z,25.40
2019-01-31T10:03:11.007Z,25.37
2019-01-31T10:06:37.387Z,24.20
2019-01-31T10:09:33.263Z,25.30
2019-01-31T10:12:47.863Z,25.37
2019-01-31T10:15:58.619Z,23.27
2019-01-31T10:18:59.398Z,23.47
2019-01-31T10:21:44.957Z,23.40
2019-01-31T10:24:54.596Z,22.73
2019-01-31T10:27:51.651Z,20.90
2019-01-31T10:30:39.350Z,21.27
2019-01-31T10:33:59.717Z,21.47
2019-01-31T10:36:38.959Z,19.93
2019-01-31T10:39:51.726Z,19.47
2019-01-31T10:42:50.501Z,19.77
2019-01-31T10:45:43.970Z,20.23
2019-01-31T10:48:48.511Z,17.87
2019-01-31T10:51:44.004Z,17.17
2019-01-31T10:54:57.478Z,18.47
2019-01-31T10:58:06.504Z,17.60
2019-01-31T11:01:36.562Z,16.80
2019-01-31T11:04:45.086Z,16.80
2019-01-31T11:08:01.842Z,15.87
2019-01-31T11:11:04.119Z,15.40
2019-01-31T11:14:07.490Z,15.90
2019-01-31T11:17:26.574Z,16.70
2019-01-31T11:20:28.926Z,15.50
2019-01-31T11:23:48.058Z,15.13
2019-01-31T11:27:04.962Z,14.87
2019-01-31T11:30:00.014Z,15.57
2019-01-31T11:33:07.438Z,17.23
2019-01-31T11:36:33.793Z,16.10
2019-01-31T11:39:27.003Z,15.63
2019-01-31T11:42:26.594Z,14.07
2019-01-31T11:45:29.296Z,14.07
2019-01-31T11:48:32.328Z,14.20
2019-01-31T11:51:34.833Z,13.90
2019-01-31T11:55:04.098Z,14.30
2019-01-31T11:58:22.710Z,14.80
2019-01-31T12:00:53.246Z,13.67
2019-01-31T12:03:24.238Z,13.83
2019-01-31T12:05:54.573Z,15.47
2019-01-31T12:08:25.046Z,14.37
2019-01-31T12:10:55.394Z,13.97
2019-01-31T12:13:26.839Z,13.67
2019-01-31T12:15:57.192Z,13.87
2019-01-31T12:18:27.562Z,14.10
2019-01-31T12:20:58.824Z,15.13
2019-01-31T12:23:32.148Z,14.87
2019-01-31T12:26:01.484Z,14.47
2019-01-31T12:28:31.823Z,14.60
2019-01-31T12:31:02.178Z,14.57
2019-01-31T12:33:32.722Z,14.40
2019-01-31T12:36:03.093Z,14.13
2019-01-31T12:38:54.884Z,14.10
2019-01-31T12:41:24.610Z,10.90
2019-01-31T12:43:55.361Z,11.87
2019-01-31T12:46:26.102Z,11.97
2019-01-31T12:48:56.426Z,13.43
2019-01-31T12:51:26.767Z,12.00
2019-01-31T12:53:57.125Z,12.30
2019-01-31T12:56:27.466Z,13.67
2019-01-31T12:58:57.847Z,12.67
2019-01-31T13:01:28.184Z,13.10
2019-01-31T13:03:58.614Z,13.10
2019-01-31T13:06:28.983Z,12.60
2019-01-31T13:09:00.042Z,13.20
2019-01-31T13:11:30.386Z,12.77
2019-01-31T13:14:00.752Z,10.43
2019-01-31T13:16:31.146Z,10.43
2019-01-31T13:19:01.499Z,9.57
2019-01-31T13:21:31.873Z,9.50
2019-01-31T13:24:02.202Z,9.70
2019-01-31T13:26:32.574Z,9.23
2019-01-31T13:29:02.914Z,8.70
2019-01-31T13:31:33.330Z,8.23
2019-01-31T13:34:03.975Z,8.17
2019-01-31T13:36:34.382Z,8.00
2019-01-31T13:39:09.538Z,7.77
2019-01-31T13:41:41.960Z,7.50
2019-01-31T13:44:12.469Z,7.00
2019-01-31T13:46:42.847Z,7.60
2019-01-31T13:49:13.178Z,7.37
2019-01-31T13:51:43.510Z,7.00
2019-01-31T13:54:14.267Z,7.70
2019-01-31T13:56:45.907Z,7.90
2019-01-31T13:59:16.447Z,8.20
2019-01-31T14:01:46.807Z,8.60
2019-01-31T14:04:17.170Z,9.37
2019-01-31T14:06:47.546Z,11.60
2019-01-31T14:09:17.882Z,12.33
2019-01-31T14:11:48.304Z,11.90
2019-01-31T14:14:18.638Z,12.23
2019-01-31T14:16:49.010Z,13.17
2019-01-31T14:19:19.351Z,13.67
2019-01-31T14:21:49.718Z,13.63
2019-01-31T14:24:20.100Z,13.40
2019-01-31T14:26:50.826Z,13.50
2019-01-31T14:29:21.167Z,13.80
2019-01-31T14:31:51.538Z,13.20
2019-01-31T14:34:21.916Z,12.77
2019-01-31T14:36:52.417Z,12.87
2019-01-31T14:39:23.722Z,12.83
2019-01-31T14:41:54.230Z,12.30
2019-01-31T14:44:24.614Z,11.73
2019-01-31T14:46:54.991Z,12.00
2019-01-31T14:49:25.342Z,11.87
2019-01-31T14:51:55.690Z,12.03
2019-01-31T14:54:26.051Z,12.50
2019-01-31T14:56:56.390Z,12.40
2019-01-31T14:59:27.179Z,12.83
2019-01-31T15:01:58.262Z,16.20
2019-01-31T15:04:28.730Z,17.33
2019-01-31T15:06:59.078Z,16.23
2019-01-31T15:09:29.838Z,17.43
2019-01-31T15:12:00.167Z,17.07
2019-01-31T15:14:31.961Z,17.77
2019-01-31T15:17:02.607Z,18.30
2019-01-31T15:19:33.071Z,18.10
2019-01-31T15:22:03.406Z,17.77
2019-01-31T15:24:34.239Z,18.17
2019-01-31T15:27:04.588Z,17.53
2019-01-31T15:29:35.042Z,18.20
2019-01-31T15:32:05.378Z,19.27
2019-01-31T15:34:35.743Z,20.87
2019-01-31T15:37:06.105Z,18.87
2019-01-31T15:39:36.890Z,19.33
2019-01-31T15:42:07.322Z,19.20
2019-01-31T15:44:43.388Z,18.67
2019-01-31T15:47:10.489Z,23.17
2019-01-31T15:49:41.745Z,21.17
2019-01-31T15:52:12.054Z,22.80
2019-01-31T15:54:42.479Z,23.40
2019-01-31T15:57:16.714Z,23.67
2019-01-31T15:59:45.196Z,22.80
2019-01-31T16:02:15.550Z,23.20
2019-01-31T16:04:45.922Z,23.40
2019-01-31T16:07:16.266Z,24.43
2019-01-31T16:09:46.630Z,22.93
2019-01-31T16:12:17.039Z,23.37
2019-01-31T16:14:54.559Z,24.53
2019-01-31T16:17:19.406Z,24.03
2019-01-31T16:19:50.091Z,23.07
2019-01-31T16:22:20.466Z,23.03
2019-01-31T16:24:51.047Z,26.83
2019-01-31T16:27:21.502Z,28.30
2019-01-31T16:29:51.834Z,24.63
2019-01-31T16:32:22.550Z,24.13
2019-01-31T16:34:54.269Z,25.50
2019-01-31T16:37:24.650Z,26.27
2019-01-31T16:39:54.990Z,26.27
2019-01-31T16:42:25.480Z,25.33
2019-01-31T16:45:06.137Z,25.30
2019-01-31T16:47:27.906Z,25.57
2019-01-31T16:49:58.243Z,26.43
2019-01-31T16:52:28.593Z,27.07
2019-01-31T16:54:58.962Z,26.93
2019-01-31T16:57:29.301Z,27.60
2019-01-31T16:59:59.666Z,25.97
2019-01-31T17:02:30.000Z,26.90
2019-01-31T17:05:00.771Z,26.97
2019-01-31T17:07:31.101Z,27.10
2019-01-31T17:10:03.267Z,29.43
2019-01-31T17:12:33.670Z,27.43
2019-01-31T17:15:04.439Z,27.60
2019-01-31T17:17:34.774Z,28.37
2019-01-31T17:20:06.966Z,30.60
2019-01-31T17:22:37.296Z,28.70
2019-01-31T17:25:10.291Z,29.23
2019-01-31T17:27:40.642Z,29.97
2019-01-31T17:30:15.167Z,31.37
2019-01-31T17:32:45.502Z,32.67
2019-01-31T17:35:16.430Z,32.67
2019-01-31T17:37:46.864Z,33.53
2019-01-31T17:40:23.156Z,33.87
2019-01-31T17:42:53.530Z,33.50
2019-01-31T17:45:30.510Z,32.83
2019-01-31T17:47:57.378Z,32.83
2019-01-31T17:50:27.772Z,34.03
2019-01-31T17:52:58.102Z,37.23
2019-01-31T17:55:28.494Z,39.07
2019-01-31T17:57:58.933Z,36.53
2019-01-31T18:00:42.321Z,38.83
2019-01-31T18:03:12.662Z,40.27
2019-01-31T18:05:43.036Z,38.90
2019-01-31T18:08:13.378Z,43.30
2019-01-31T18:10:43.734Z,43.87
2019-01-31T18:13:14.112Z,41.63
2019-01-31T18:15:44.445Z,41.97
2019-01-31T18:18:14.799Z,40.30
2019-01-31T18:20:45.131Z,41.23
2019-01-31T18:23:15.924Z,39.77
2019-01-31T18:25:47.338Z,37.60
2019-01-31T18:28:17.802Z,36.97
2019-01-31T18:30:48.138Z,36.80
2019-01-31T18:33:18.530Z,37.83
2019-01-31T18:35:48.882Z,37.80
2019-01-31T18:38:19.267Z,37.17
2019-01-31T18:40:49.612Z,37.00
2019-01-31T18:43:20.155Z,38.60
2019-01-31T18:45:53.346Z,37.60
2019-01-31T18:48:22.501Z,37.03
2019-01-31T18:50:52.830Z,39.13
2019-01-31T18:53:23.162Z,38.63
2019-01-31T18:55:53.535Z,38.23
2019-01-31T18:58:23.878Z,38.80
2019-01-31T19:00:55.438Z,39.60
2019-01-31T19:03:25.800Z,39.43
2019-01-31T19:05:56.280Z,41.63
2019-01-31T19:08:26.610Z,39.43
2019-01-31T19:10:56.994Z,41.13
2019-01-31T19:13:27.327Z,41.30
2019-01-31T19:16:04.855Z,47.90
2019-01-31T19:18:29.775Z,40.50
2019-01-31T19:21:00.149Z,40.60
2019-01-31T19:23:30.499Z,42.13
2019-01-31T19:26:00.875Z,44.07
2019-01-31T19:28:31.206Z,44.67
2019-01-31T19:31:01.574Z,45.90
2019-01-31T19:33:31.950Z,43.30
2019-01-31T19:36:02.295Z,47.00
2019-01-31T19:38:32.666Z,47.17
2019-01-31T19:41:03.329Z,46.47
2019-01-31T19:43:33.734Z,45.87
2019-01-31T19:46:04.082Z,49.60
2019-01-31T19:48:34.491Z,49.60
2019-01-31T19:51:05.246Z,49.23
2019-01-31T19:53:37.242Z,49.47
2019-01-31T19:56:08.761Z,49.17
2019-01-31T19:58:39.151Z,49.77
2019-01-31T20:01:09.502Z,49.37
2019-01-31T20:03:39.890Z,48.13
2019-01-31T20:06:10.242Z,48.03
2019-01-31T20:08:40.614Z,50.37
2019-01-31T20:11:10.982Z,49.10
2019-01-31T20:13:43.831Z,49.40
2019-01-31T20:16:16.090Z,49.67
2019-01-31T20:18:45.313Z,49.23
2019-01-31T20:21:15.686Z,47.90
2019-01-31T20:23:46.026Z,49.40
2019-01-31T20:26:16.463Z,46.60
2019-01-31T20:28:46.802Z,47.17
2019-01-31T20:31:17.286Z,49.43
2019-01-31T20:33:47.643Z,49.57
2019-01-31T20:36:18.078Z,50.17
2019-01-31T20:38:48.431Z,50.10
2019-01-31T20:41:18.821Z,50.30
2019-01-31T20:43:50.141Z,49.80
2019-01-31T20:46:39.743Z,49.80
2019-01-31T20:49:04.634Z,50.07
2019-01-31T20:51:35.368Z,50.80
2019-01-31T20:54:05.838Z,50.73
2019-01-31T20:56:36.235Z,51.17
2019-01-31T20:59:06.586Z,49.73
2019-01-31T21:01:36.986Z,52.10
2019-01-31T21:04:07.344Z,50.27
2019-01-31T21:06:41.381Z,50.83
2019-01-31T21:09:10.115Z,48.90
2019-01-31T21:11:41.922Z,49.80
2019-01-31T21:14:12.271Z,50.30
2019-01-31T21:16:51.488Z,51.57
2019-01-31T21:19:14.643Z,52.77
2019-01-31T21:21:45.025Z,51.03
2019-01-31T21:24:16.442Z,49.23
2019-01-31T21:26:47.189Z,49.70
2019-01-31T21:29:17.538Z,49.00
2019-01-31T21:31:48.006Z,50.83
2019-01-31T21:34:18.368Z,50.63
2019-01-31T21:36:48.734Z,50.20
2019-01-31T21:39:19.202Z,50.30
2019-01-31T21:41:50.212Z,50.63
2019-01-31T21:44:21.299Z,50.60
2019-01-31T21:47:02.522Z,51.70
2019-01-31T21:49:24.938Z,51.40
2019-01-31T21:51:57.005Z,51.13
2019-01-31T21:54:27.362Z,50.20
2019-01-31T21:56:57.741Z,52.60
2019-01-31T21:59:28.119Z,51.00
2019-01-31T22:01:58.474Z,52.27
2019-01-31T22:04:28.846Z,51.97
2019-01-31T22:06:59.192Z,50.50
2019-01-31T22:09:29.586Z,52.77
2019-01-31T22:11:59.931Z,51.57
2019-01-31T22:14:30.319Z,52.33
2019-01-31T22:17:00.664Z,52.17
2019-01-31T22:19:31.058Z,51.93
2019-01-31T22:22:01.766Z,52.73
2019-01-31T22:24:32.151Z,51.63
2019-01-31T22:27:02.494Z,51.80
2019-01-31T22:29:32.898Z,53.17
2019-01-31T22:32:03.320Z,53.00
2019-01-31T22:34:33.687Z,54.90
2019-01-31T22:37:04.156Z,49.87
2019-01-31T22:39:34.499Z,53.53
2019-01-31T22:42:04.874Z,51.53
2019-01-31T22:44:35.314Z,53.40
2019-01-31T22:47:05.748Z,55.03
2019-01-31T22:49:36.099Z,54.93
2019-01-31T22:52:06.541Z,53.10
2019-01-31T22:54:36.877Z,54.50
2019-01-31T22:57:09.162Z,55.23
2019-01-31T22:59:39.450Z,55.43
2019-01-31T23:02:13.366Z,53.67
2019-01-31T23:04:43.788Z,54.43
2019-01-31T23:07:14.198Z,52.63
2019-01-31T23:09:44.546Z,53.87
2019-01-31T23:12:15.086Z,53.27
2019-01-31T23:14:45.434Z,52.97
2019-01-31T23:17:16.905Z,55.00
2019-01-31T23:19:47.323Z,53.37
2019-01-31T23:22:18.089Z,54.03
2019-01-31T23:24:48.429Z,52.70
2019-01-31T23:27:19.674Z,53.27
2019-01-31T23:29:50.016Z,56.13
2019-01-31T23:32:20.412Z,53.30
2019-01-31T23:34:50.750Z,56.17
2019-01-31T23:37:21.497Z,56.03
2019-01-31T23:39:51.852Z,54.77
2019-01-31T23:42:22.234Z,55.57
2019-01-31T23:44:52.660Z,54.60
2019-01-31T23:47:23.042Z,56.77
2019-01-31T23:49:53.398Z,55.70
2019-01-31T23:52:24.167Z,56.73
2019-01-31T23:54:54.562Z,56.07
2019-01-31T23:57:24.908Z,55.73
2019-01-31T23:59:55.258Z,56.50
